createdAt,value
2018-05-16T00:01:23.863Z,98783.33
2018-05-16T00:03:52.242Z,98780.64
2018-05-16T00:06:20.619Z,98772.41
2018-05-16T00:08:49.793Z,98772.03
2018-05-16T00:11:18.220Z,98766.79
2018-05-16T00:13:46.604Z,98767.85
2018-05-16T00:16:14.949Z,98762.22
2018-05-16T00:18:43.748Z,98756.77
2018-05-16T00:21:12.137Z,98758.45
2018-05-16T00:23:40.813Z,98753.32
2018-05-16T00:26:09.597Z,98754.73
2018-05-16T00:28:37.934Z,98741.09
2018-05-16T00:31:06.280Z,98736.93
2018-05-16T00:33:34.624Z,98732.26
2018-05-16T00:36:03.804Z,98728.95
2018-05-16T00:38:32.148Z,98741.13
2018-05-16T00:41:00.505Z,98730.41
2018-05-16T00:43:28.851Z,98723.84
2018-05-16T00:45:57.209Z,98723.23
2018-05-16T00:48:25.663Z,98717.61
2018-05-16T00:51:05.601Z,98718.18
2018-05-16T00:53:33.966Z,98712.98
2018-05-16T00:56:02.322Z,98710.20
2018-05-16T00:58:30.666Z,98710.02
2018-05-16T01:00:59.935Z,98709.18
2018-05-16T01:03:28.273Z,98703.88
2018-05-16T01:05:56.640Z,98702.88
2018-05-16T01:08:25.899Z,98703.52
2018-05-16T01:10:54.248Z,98705.92
2018-05-16T01:13:23.400Z,98697.16
2018-05-16T01:15:52.855Z,98691.64
2018-05-16T01:18:21.199Z,98691.83
2018-05-16T01:20:49.557Z,98695.75
2018-05-16T01:23:17.880Z,98691.70
2018-05-16T01:25:47.481Z,98692.80
2018-05-16T01:28:15.818Z,98689.30
2018-05-16T01:30:44.225Z,98689.45
2018-05-16T01:33:13.289Z,98686.64
2018-05-16T01:35:42.365Z,98682.03
2018-05-16T01:38:11.921Z,98685.30
2018-05-16T01:40:40.985Z,98688.19
2018-05-16T01:43:09.332Z,98678.05
2018-05-16T01:45:37.684Z,98677.98
2018-05-16T01:48:06.014Z,98680.41
2018-05-16T01:50:34.410Z,98683.42
2018-05-16T01:53:02.781Z,98687.20
2018-05-16T01:55:31.140Z,98681.17
2018-05-16T01:57:59.502Z,98680.69
2018-05-16T02:00:28.085Z,98687.76
2018-05-16T02:02:57.211Z,98689.31
2018-05-16T02:05:25.567Z,98691.27
2018-05-16T02:07:53.907Z,98697.57
2018-05-16T02:10:22.667Z,98689.59
2018-05-16T02:12:50.999Z,98689.66
2018-05-16T02:15:20.081Z,98687.58
2018-05-16T02:17:48.426Z,98686.87
2018-05-16T02:20:16.851Z,98682.39
2018-05-16T02:22:45.193Z,98683.09
2018-05-16T02:25:13.553Z,98686.22
2018-05-16T02:27:42.318Z,98684.19
2018-05-16T02:30:12.346Z,98691.08
2018-05-16T02:32:40.723Z,98686.02
2018-05-16T02:35:09.080Z,98690.27
2018-05-16T02:37:37.409Z,98691.70
2018-05-16T02:40:05.769Z,98691.55
2018-05-16T02:42:34.124Z,98683.79
2018-05-16T02:45:02.710Z,98683.34
2018-05-16T02:47:31.098Z,98686.28
2018-05-16T02:49:59.446Z,98682.94
2018-05-16T02:52:27.787Z,98689.51
2018-05-16T02:54:56.108Z,98695.16
2018-05-16T02:57:25.539Z,98693.98
2018-05-16T02:59:53.808Z,98694.91
2018-05-16T03:02:22.601Z,98700.41
2018-05-16T03:04:51.342Z,98700.71
2018-05-16T03:07:20.698Z,98699.46
2018-05-16T03:09:49.034Z,98698.81
2018-05-16T03:12:17.510Z,98702.52
2018-05-16T03:14:47.510Z,98704.39
2018-05-16T03:17:15.854Z,98707.80
2018-05-16T03:19:44.466Z,98708.70
2018-05-16T03:22:12.821Z,98709.65
2018-05-16T03:24:41.153Z,98713.12
2018-05-16T03:27:09.511Z,98713.47
2018-05-16T03:29:38.289Z,98713.47
2018-05-16T03:32:07.718Z,98714.55
2018-05-16T03:34:36.049Z,98723.20
2018-05-16T03:37:04.659Z,98720.15
2018-05-16T03:39:33.002Z,98721.97
2018-05-16T03:42:01.349Z,98721.67
2018-05-16T03:44:30.043Z,98720.09
2018-05-16T03:46:58.644Z,98723.55
2018-05-16T03:49:26.969Z,98725.55
2018-05-16T03:51:57.050Z,98721.25
2018-05-16T03:54:25.424Z,98714.30
2018-05-16T03:56:53.837Z,98724.23
2018-05-16T03:59:34.278Z,98725.05
2018-05-16T04:02:14.796Z,98731.20
2018-05-16T04:04:43.171Z,98732.41
2018-05-16T04:07:11.533Z,98732.89
2018-05-16T04:09:40.696Z,98731.70
2018-05-16T04:12:09.049Z,98731.34
2018-05-16T04:14:38.187Z,98735.03
2018-05-16T04:17:06.901Z,98739.45
2018-05-16T04:19:35.257Z,98737.66
2018-05-16T04:22:03.617Z,98729.05
2018-05-16T04:24:31.959Z,98723.26
2018-05-16T04:27:00.320Z,98730.08
2018-05-16T04:29:28.737Z,98725.88
2018-05-16T04:31:57.107Z,98719.36
2018-05-16T04:34:25.438Z,98730.95
2018-05-16T04:36:54.530Z,98732.23
2018-05-16T04:39:22.873Z,98735.16
2018-05-16T04:41:51.357Z,98744.24
2018-05-16T04:44:19.625Z,98749.63
2018-05-16T04:46:48.039Z,98746.55
2018-05-16T04:49:16.582Z,98743.82
2018-05-16T04:51:44.951Z,98748.07
2018-05-16T04:54:13.285Z,98744.83
2018-05-16T04:56:41.994Z,98748.56
2018-05-16T04:59:10.957Z,98754.00
2018-05-16T05:01:40.742Z,98752.42
2018-05-16T05:04:09.091Z,98761.95
2018-05-16T05:06:37.739Z,98762.42
2018-05-16T05:09:06.213Z,98775.11
2018-05-16T05:11:35.584Z,98780.23
2018-05-16T05:14:05.702Z,98768.86
2018-05-16T05:16:34.068Z,98773.76
2018-05-16T05:19:02.400Z,98768.67
2018-05-16T05:21:32.471Z,98771.23
2018-05-16T05:24:00.890Z,98773.30
2018-05-16T05:26:29.609Z,98768.67
2018-05-16T05:28:57.982Z,98767.65
2018-05-16T05:31:26.325Z,98769.60
2018-05-16T05:33:56.065Z,98774.75
2018-05-16T05:36:25.155Z,98777.12
2018-05-16T05:38:54.414Z,98789.31
2018-05-16T05:41:23.195Z,98777.41
2018-05-16T05:43:51.544Z,98787.63
2018-05-16T05:46:19.894Z,98786.61
2018-05-16T05:48:48.497Z,98793.32
2018-05-16T05:51:17.521Z,98791.86
2018-05-16T05:53:46.157Z,98801.59
2018-05-16T05:56:14.500Z,98802.02
2018-05-16T05:58:42.964Z,98801.75
2018-05-16T06:01:11.323Z,98801.66
2018-05-16T06:03:40.483Z,98811.39
2018-05-16T06:06:09.130Z,98797.50
2018-05-16T06:08:37.534Z,98793.88
2018-05-16T06:11:06.396Z,98805.11
2018-05-16T06:13:35.492Z,98797.64
2018-05-16T06:16:03.842Z,98800.09
2018-05-16T06:18:32.199Z,98798.77
2018-05-16T06:21:00.550Z,98799.33
2018-05-16T06:23:29.169Z,98802.89
2018-05-16T06:25:57.529Z,98797.95
2018-05-16T06:28:25.888Z,98807.63
2018-05-16T06:30:54.223Z,98803.95
2018-05-16T06:33:22.834Z,98798.48
2018-05-16T06:35:52.004Z,98793.64
2018-05-16T06:38:21.640Z,98801.05
2018-05-16T06:40:50.705Z,98806.41
2018-05-16T06:43:19.050Z,98815.83
2018-05-16T06:45:47.503Z,98813.52
2018-05-16T06:48:16.716Z,98811.70
2018-05-16T06:50:45.801Z,98807.80
2018-05-16T06:53:14.142Z,98814.03
2018-05-16T06:55:42.488Z,98810.17
2018-05-16T06:58:11.193Z,98814.42
2018-05-16T07:00:40.264Z,98814.89
2018-05-16T07:03:09.478Z,98823.94
2018-05-16T07:05:37.887Z,98822.08
2018-05-16T07:08:07.219Z,98815.54
2018-05-16T07:10:35.816Z,98823.74
2018-05-16T07:13:04.164Z,98818.91
2018-05-16T07:15:32.516Z,98821.92
2018-05-16T07:18:01.858Z,98815.61
2018-05-16T07:20:30.344Z,98823.12
2018-05-16T07:22:59.581Z,98823.53
2018-05-16T07:25:28.286Z,98825.30
2018-05-16T07:27:57.612Z,98826.41
2018-05-16T07:30:27.203Z,98832.53
2018-05-16T07:32:55.545Z,98825.08
2018-05-16T07:35:24.826Z,98834.07
2018-05-16T07:37:53.206Z,98838.94
2018-05-16T07:40:21.949Z,98835.08
2018-05-16T07:42:52.161Z,98835.34
2018-05-16T07:45:21.373Z,98844.55
2018-05-16T07:47:50.057Z,98840.41
2018-05-16T07:50:18.420Z,98848.89
2018-05-16T07:52:47.475Z,98841.19
2018-05-16T07:55:16.357Z,98840.77
2018-05-16T07:57:45.617Z,98838.84
2018-05-16T08:00:13.954Z,98840.27
2018-05-16T08:02:42.379Z,98842.66
2018-05-16T08:05:10.717Z,98846.60
2018-05-16T08:07:39.828Z,98847.28
2018-05-16T08:10:09.925Z,98850.33
2018-05-16T08:12:38.759Z,98845.84
2018-05-16T08:15:07.130Z,98839.19
2018-05-16T08:17:35.938Z,98843.16
2018-05-16T08:20:04.503Z,98843.66
2018-05-16T08:22:33.785Z,98842.27
2018-05-16T08:25:02.974Z,98842.77
2018-05-16T08:27:32.383Z,98845.78
2018-05-16T08:30:00.756Z,98836.80
2018-05-16T08:32:29.119Z,98843.81
2018-05-16T08:34:57.444Z,98846.12
2018-05-16T08:37:26.667Z,98846.23
2018-05-16T08:39:55.422Z,98849.37
2018-05-16T08:42:24.533Z,98845.48
2018-05-16T08:44:52.862Z,98846.54
2018-05-16T08:47:21.590Z,98847.01
2018-05-16T08:49:49.971Z,98845.70
2018-05-16T08:52:18.408Z,98853.64
2018-05-16T08:54:46.752Z,98848.56
2018-05-16T08:57:16.030Z,98852.61
2018-05-16T08:59:44.406Z,98846.70
2018-05-16T09:02:12.782Z,98845.95
2018-05-16T09:04:41.111Z,98845.94
2018-05-16T09:07:10.817Z,98848.06
2018-05-16T09:09:39.166Z,98849.47
2018-05-16T09:12:07.562Z,98848.03
2018-05-16T09:14:35.909Z,98850.06
2018-05-16T09:17:04.240Z,98854.28
2018-05-16T09:19:32.682Z,98858.35
2018-05-16T09:22:01.066Z,98858.94
2018-05-16T09:24:30.349Z,98854.61
2018-05-16T09:26:59.148Z,98855.53
2018-05-16T09:29:27.739Z,98850.73
2018-05-16T09:31:56.504Z,98857.08
2018-05-16T09:34:25.522Z,98856.45
2018-05-16T09:36:53.905Z,98853.84
2018-05-16T09:39:22.293Z,98859.14
2018-05-16T09:41:51.025Z,98848.86
2018-05-16T09:44:19.438Z,98851.44
2018-05-16T09:46:47.796Z,98849.16
2018-05-16T09:49:16.195Z,98851.28
2018-05-16T09:51:44.553Z,98851.50
2018-05-16T09:54:12.934Z,98850.45
2018-05-16T09:56:41.337Z,98840.96
2018-05-16T09:59:09.743Z,98846.80
2018-05-16T10:01:38.556Z,98850.35
2018-05-16T10:04:06.923Z,98851.30
2018-05-16T10:06:35.617Z,98857.14
2018-05-16T10:09:04.528Z,98857.83
2018-05-16T10:11:32.862Z,98860.35
2018-05-16T10:14:01.602Z,98850.78
2018-05-16T10:16:29.949Z,98851.79
2018-05-16T10:18:58.358Z,98846.78
2018-05-16T10:21:26.936Z,98865.87
2018-05-16T10:23:55.693Z,98858.88
2018-05-16T10:26:24.925Z,98862.23
2018-05-16T10:28:54.160Z,98858.49
2018-05-16T10:31:22.753Z,98865.78
2018-05-16T10:33:51.153Z,98863.69
2018-05-16T10:36:19.723Z,98870.52
2018-05-16T10:38:47.867Z,98872.91
2018-05-16T10:41:16.270Z,98875.07
2018-05-16T10:43:44.937Z,98890.66
2018-05-16T10:46:13.296Z,98885.59
2018-05-16T10:48:42.066Z,98885.61
2018-05-16T10:51:10.435Z,98888.03
2018-05-16T10:53:39.109Z,98887.33
2018-05-16T10:56:07.502Z,98890.48
2018-05-16T10:58:36.706Z,98882.65
2018-05-16T11:01:05.080Z,98890.41
2018-05-16T11:03:33.425Z,98886.47
2018-05-16T11:06:02.413Z,98879.92
2018-05-16T11:08:30.753Z,98878.59
2018-05-16T11:10:59.117Z,98874.14
2018-05-16T11:13:27.501Z,98871.62
2018-05-16T11:15:55.857Z,98864.31
2018-05-16T11:18:24.230Z,98862.80
2018-05-16T11:20:52.593Z,98859.61
2018-05-16T11:23:21.842Z,98866.80
2018-05-16T11:25:50.260Z,98861.97
2018-05-16T11:28:19.302Z,98863.22
2018-05-16T11:30:47.660Z,98865.89
2018-05-16T11:33:16.001Z,98863.70
2018-05-16T11:35:44.353Z,98864.97
2018-05-16T11:38:12.683Z,98857.20
2018-05-16T11:40:41.456Z,98850.52
2018-05-16T11:43:11.557Z,98853.02
2018-05-16T11:45:40.485Z,98853.34
2018-05-16T11:48:09.860Z,98850.33
2018-05-16T11:50:38.196Z,98837.92
2018-05-16T11:53:06.553Z,98847.09
2018-05-16T11:55:34.909Z,98847.23
2018-05-16T11:58:03.264Z,98837.95
2018-05-16T12:00:32.018Z,98834.06
2018-05-16T12:03:00.948Z,98832.30
2018-05-16T12:05:29.630Z,98826.83
2018-05-16T12:07:57.983Z,98819.65
2018-05-16T12:10:26.373Z,98827.99
2018-05-16T12:12:54.744Z,98814.39
2018-05-16T12:15:23.072Z,98819.69
2018-05-16T12:17:51.469Z,98821.19
2018-05-16T12:20:19.811Z,98817.97
2018-05-16T12:22:48.179Z,98819.66
2018-05-16T12:25:16.545Z,98814.74
2018-05-16T12:27:45.582Z,98811.61
2018-05-16T12:30:13.907Z,98813.52
2018-05-16T12:32:42.253Z,98809.91
2018-05-16T12:35:11.054Z,98814.11
2018-05-16T12:37:39.388Z,98814.81
2018-05-16T12:40:07.733Z,98811.30
2018-05-16T12:42:36.098Z,98826.13
2018-05-16T12:45:04.439Z,98818.61
2018-05-16T12:47:32.811Z,98826.82
2018-05-16T12:50:01.705Z,98833.14
2018-05-16T12:52:30.054Z,98833.05
2018-05-16T12:54:58.689Z,98851.69
2018-05-16T12:57:27.104Z,98847.10
2018-05-16T12:59:55.483Z,98849.53
2018-05-16T13:02:24.245Z,98848.25
2018-05-16T13:04:52.590Z,98851.13
2018-05-16T13:07:21.818Z,98865.87
2018-05-16T13:09:50.157Z,98863.73
2018-05-16T13:12:18.535Z,98875.42
2018-05-16T13:14:46.921Z,98866.62
2018-05-16T13:17:15.256Z,98881.13
2018-05-16T13:19:47.838Z,98865.74
2018-05-16T13:22:16.175Z,98873.97
2018-05-16T13:24:44.529Z,98877.78
2018-05-16T13:27:13.773Z,98877.21
2018-05-16T13:29:42.166Z,98883.86
2018-05-16T13:32:11.421Z,98892.72
2018-05-16T13:34:40.521Z,98898.39
2018-05-16T13:37:09.221Z,98895.14
2018-05-16T13:39:39.230Z,98888.37
2018-05-16T13:42:07.924Z,98895.45
2018-05-16T13:44:36.313Z,98890.47
2018-05-16T13:47:04.647Z,98890.28
2018-05-16T13:49:33.119Z,98882.72
2018-05-16T13:52:01.446Z,98880.76
2018-05-16T13:54:30.537Z,98878.55
2018-05-16T13:56:59.101Z,98874.78
2018-05-16T13:59:27.464Z,98876.59
2018-05-16T14:01:58.619Z,98869.36
2018-05-16T14:04:26.985Z,98874.88
2018-05-16T14:06:55.759Z,98862.08
2018-05-16T14:09:25.683Z,98869.86
2018-05-16T14:11:54.955Z,98869.00
2018-05-16T14:14:23.317Z,98869.24
2018-05-16T14:16:51.675Z,98869.96
2018-05-16T14:19:20.006Z,98883.66
2018-05-16T14:21:49.015Z,98883.83
2018-05-16T14:24:17.448Z,98882.91
2018-05-16T14:26:45.859Z,98872.70
2018-05-16T14:29:14.849Z,98884.27
2018-05-16T14:31:43.201Z,98870.42
2018-05-16T14:34:11.590Z,98875.66
2018-05-16T14:36:39.969Z,98875.05
2018-05-16T14:39:08.544Z,98882.69
2018-05-16T14:41:37.345Z,98871.23
2018-05-16T14:44:05.666Z,98865.17
2018-05-16T14:46:34.014Z,98866.86
2018-05-16T14:49:03.209Z,98872.67
2018-05-16T14:51:32.196Z,98863.83
2018-05-16T14:54:00.944Z,98861.89
2018-05-16T14:56:29.659Z,98861.55
2018-05-16T14:58:57.998Z,98857.69
2018-05-16T15:01:26.369Z,98853.54
2018-05-16T15:03:54.705Z,98855.23
2018-05-16T15:06:23.887Z,98856.16
2018-05-16T15:08:53.117Z,98844.33
2018-05-16T15:11:21.733Z,98843.80
2018-05-16T15:13:50.058Z,98847.64
2018-05-16T15:16:18.421Z,98846.09
2018-05-16T15:18:46.745Z,98844.72
2018-05-16T15:21:15.195Z,98843.24
2018-05-16T15:23:43.457Z,98839.42
2018-05-16T15:26:12.375Z,98845.27
2018-05-16T15:28:40.690Z,98840.30
2018-05-16T15:31:09.039Z,98849.07
2018-05-16T15:33:37.366Z,98853.50
2018-05-16T15:36:05.693Z,98852.06
2018-05-16T15:38:34.766Z,98854.58
2018-05-16T15:41:03.149Z,98851.85
2018-05-16T15:43:31.551Z,98845.76
2018-05-16T15:46:00.185Z,98852.03
2018-05-16T15:48:28.846Z,98851.17
2018-05-16T15:50:58.015Z,98863.88
2018-05-16T15:53:26.368Z,98856.21
2018-05-16T15:55:55.675Z,98854.48
2018-05-16T15:58:24.072Z,98844.34
2018-05-16T16:00:52.443Z,98842.20
2018-05-16T16:03:20.800Z,98844.86
2018-05-16T16:05:49.155Z,98838.99
2018-05-16T16:08:18.085Z,98844.69
2018-05-16T16:10:46.405Z,98835.45
2018-05-16T16:13:15.624Z,98830.28
2018-05-16T16:15:43.964Z,98830.41
2018-05-16T16:18:12.318Z,98826.78
2018-05-16T16:20:42.460Z,98828.73
2018-05-16T16:23:10.809Z,98823.39
2018-05-16T16:25:39.142Z,98828.22
2018-05-16T16:28:08.464Z,98822.98
2018-05-16T16:30:36.799Z,98820.67
2018-05-16T16:33:05.155Z,98816.43
2018-05-16T16:35:33.485Z,98814.58
2018-05-16T16:38:02.971Z,98810.67
2018-05-16T16:40:32.993Z,98813.41
2018-05-16T16:43:01.745Z,98821.33
2018-05-16T16:45:30.445Z,98822.39
2018-05-16T16:47:58.838Z,98833.96
2018-05-16T16:50:27.923Z,98836.42
2018-05-16T16:52:57.875Z,98839.50
2018-05-16T16:55:26.545Z,98834.45
2018-05-16T16:57:57.265Z,98830.06
2018-05-16T17:00:26.983Z,98834.83
2018-05-16T17:02:56.337Z,98846.09
2018-05-16T17:05:24.701Z,98850.86
2018-05-16T17:07:53.262Z,98862.91
2018-05-16T17:10:22.713Z,98864.17
2018-05-16T17:12:51.427Z,98863.55
2018-05-16T17:15:20.640Z,98875.08
2018-05-16T17:17:49.050Z,98868.72
2018-05-16T17:20:17.421Z,98870.56
2018-05-16T17:22:45.745Z,98867.91
2018-05-16T17:25:14.139Z,98863.67
2018-05-16T17:27:42.469Z,98864.52
2018-05-16T17:30:10.826Z,98857.38
2018-05-16T17:32:39.145Z,98867.20
2018-05-16T17:35:08.321Z,98861.12
2018-05-16T17:37:37.504Z,98861.80
2018-05-16T17:40:05.846Z,98862.85
2018-05-16T17:42:34.802Z,98866.69
2018-05-16T17:45:03.153Z,98877.14
2018-05-16T17:47:31.905Z,98876.80
2018-05-16T17:50:00.255Z,98868.77
2018-05-16T17:52:28.588Z,98865.95
2018-05-16T17:54:58.056Z,98858.56
2018-05-16T17:57:27.220Z,98865.01
2018-05-16T17:59:55.577Z,98875.84
2018-05-16T18:02:24.308Z,98869.86
2018-05-16T18:04:53.292Z,98872.78
2018-05-16T18:07:21.641Z,98879.42
2018-05-16T18:09:50.309Z,98874.96
2018-05-16T18:12:18.667Z,98873.63
2018-05-16T18:17:53.712Z,98879.53
2018-05-16T18:20:22.057Z,98873.39
2018-05-16T18:22:51.857Z,98876.80
2018-05-16T18:25:20.181Z,98883.75
2018-05-16T18:27:48.768Z,98885.05
2018-05-16T18:30:17.099Z,98888.05
2018-05-16T18:32:45.436Z,98893.41
2018-05-16T18:35:15.307Z,98891.41
2018-05-16T18:37:43.755Z,98896.16
2018-05-16T18:40:12.511Z,98889.30
2018-05-16T18:42:41.271Z,98889.22
2018-05-16T18:45:09.936Z,98877.92
2018-05-16T18:47:38.285Z,98873.90
2018-05-16T18:50:06.657Z,98877.73
2018-05-16T18:52:36.713Z,98879.54
2018-05-16T18:55:06.258Z,98872.69
2018-05-16T18:57:35.644Z,98880.48
2018-05-16T19:00:04.502Z,98881.23
2018-05-16T19:02:32.930Z,98881.72
2018-05-16T19:05:01.307Z,98881.44
2018-05-16T19:07:29.677Z,98886.72
2018-05-16T19:09:58.781Z,98879.34
2018-05-16T19:12:27.588Z,98887.70
2018-05-16T19:14:56.250Z,98888.45
2018-05-16T19:17:24.664Z,98900.18
2018-05-16T19:19:53.092Z,98905.38
2018-05-16T19:22:22.312Z,98908.58
2018-05-16T19:24:51.443Z,98909.61
2018-05-16T19:27:20.064Z,98910.33
2018-05-16T19:29:48.438Z,98910.11
2018-05-16T19:32:19.693Z,98916.30
2018-05-16T19:34:48.057Z,98914.73
2018-05-16T19:37:16.440Z,98913.66
2018-05-16T19:39:45.634Z,98919.47
2018-05-16T19:42:14.327Z,98918.20
2018-05-16T19:44:43.101Z,98926.94
2018-05-16T19:47:12.734Z,98923.14
2018-05-16T19:49:41.972Z,98927.85
2018-05-16T19:52:10.575Z,98921.97
2018-05-16T19:54:39.288Z,98930.67
2018-05-16T19:57:08.315Z,98931.90
2018-05-16T19:59:37.873Z,98932.20
2018-05-16T20:02:06.990Z,98930.02
2018-05-16T20:04:35.898Z,98936.94
2018-05-16T20:07:04.280Z,98937.50
2018-05-16T20:09:32.640Z,98938.34
2018-05-16T20:12:01.721Z,98943.16
2018-05-16T20:14:30.382Z,98939.34
2018-05-16T20:16:58.683Z,98943.34
2018-05-16T20:19:27.416Z,98959.13
2018-05-16T20:21:55.753Z,98963.98
2018-05-16T20:24:25.331Z,98967.39
2018-05-16T20:26:53.795Z,98969.50
2018-05-16T20:29:22.202Z,98970.93
2018-05-16T20:31:50.535Z,98973.39
2018-05-16T20:34:18.925Z,98973.02
2018-05-16T20:36:47.255Z,98972.42
2018-05-16T20:39:15.710Z,98960.83
2018-05-16T20:41:44.043Z,98958.16
2018-05-16T20:44:12.848Z,98960.91
2018-05-16T20:46:41.245Z,98980.37
2018-05-16T20:49:09.596Z,98976.82
2018-05-16T20:51:37.961Z,98959.42
2018-05-16T20:54:06.745Z,98962.72
2018-05-16T20:56:35.528Z,98969.97
2018-05-16T20:59:03.879Z,98969.48
2018-05-16T21:01:32.426Z,98967.39
2018-05-16T21:04:00.810Z,98965.97
2018-05-16T21:06:29.184Z,98963.07
2018-05-16T21:09:01.101Z,98967.81
2018-05-16T21:11:29.517Z,98965.88
2018-05-16T21:13:58.721Z,98976.80
2018-05-16T21:16:27.101Z,98977.98
2018-05-16T21:18:56.373Z,98982.34
2018-05-16T21:21:24.884Z,98982.63
2018-05-16T21:23:53.236Z,98983.27
2018-05-16T21:26:21.608Z,98985.00
2018-05-16T21:28:49.977Z,98987.94
2018-05-16T21:31:18.801Z,98995.59
2018-05-16T21:33:47.145Z,98998.12
2018-05-16T21:36:15.916Z,98998.69
2018-05-16T21:38:44.293Z,98998.16
2018-05-16T21:41:12.673Z,98994.96
2018-05-16T21:43:41.041Z,98989.84
2018-05-16T21:46:09.464Z,98994.59
2018-05-16T21:48:38.372Z,98989.50
2018-05-16T21:51:07.666Z,98986.45
2018-05-16T21:53:36.173Z,98987.83
2018-05-16T21:56:04.524Z,98994.84
2018-05-16T21:58:32.917Z,98996.53
2018-05-16T22:01:01.598Z,98995.49
2018-05-16T22:03:29.980Z,99000.92
2018-05-16T22:05:58.348Z,98993.17
2018-05-16T22:08:26.692Z,98990.86
2018-05-16T22:10:55.035Z,98999.09
2018-05-16T22:13:23.661Z,99002.19
2018-05-16T22:15:52.010Z,99002.67
2018-05-16T22:18:20.377Z,99006.45
2018-05-16T22:20:50.007Z,99009.94
2018-05-16T22:23:18.387Z,99004.63
2018-05-16T22:25:46.729Z,99008.77
2018-05-16T22:28:15.086Z,99008.72
2018-05-16T22:30:49.769Z,99008.81
2018-05-16T22:33:23.736Z,99014.55
2018-05-16T22:35:57.736Z,99013.14
2018-05-16T22:38:31.668Z,99014.06
2018-05-16T22:41:05.453Z,99014.34
2018-05-16T22:43:46.083Z,99016.91
2018-05-16T22:46:14.425Z,99015.28
2018-05-16T22:48:42.791Z,99011.56
2018-05-16T22:51:11.124Z,99013.33
2018-05-16T22:53:40.520Z,99012.44
2018-05-16T22:56:09.857Z,99015.95
2018-05-16T22:58:38.693Z,99015.36
2018-05-16T23:01:07.041Z,99011.56
2018-05-16T23:03:35.658Z,99011.07
2018-05-16T23:06:04.054Z,99017.11
2018-05-16T23:08:32.421Z,99014.66
2018-05-16T23:11:02.846Z,99013.14
2018-05-16T23:13:31.266Z,99013.92
2018-05-16T23:16:00.396Z,99014.16
2018-05-16T23:18:29.530Z,99013.18
2018-05-16T23:20:58.872Z,99023.09
2018-05-16T23:23:27.238Z,99021.93
2018-05-16T23:25:55.897Z,99016.20
2018-05-16T23:28:25.103Z,99011.00
2018-05-16T23:30:53.452Z,99013.04
2018-05-16T23:33:21.864Z,99014.06
2018-05-16T23:35:50.197Z,99018.48
2018-05-16T23:38:18.531Z,99021.41
2018-05-16T23:40:47.680Z,99018.52
2018-05-16T23:43:16.074Z,99018.41
2018-05-16T23:45:44.448Z,99020.21
2018-05-16T23:48:12.920Z,99029.91
2018-05-16T23:50:41.285Z,99027.80
2018-05-16T23:53:09.641Z,99035.92
2018-05-16T23:55:38.012Z,99032.26
2018-05-16T23:58:07.180Z,99038.06
